Time;durP1;ratioP1;P1;durP2;ratioP2;P2;SDS_P1;SDS_P2;PMS_P1;PMS_P2;Temp;Humidity;BMP_temperature;BMP_pressure;BME280_temperature;BME280_humidity;BME280_pressure;Samples;Min_cycle;Max_cycle;Signal;HPM_P1;HPM_P2
2021/07/06 00:02:25;;;;;;;15.15;10.15;;;16.70;99.90;;;;;;5016365;28;20022;-77
2021/07/06 00:04:58;;;;;;;11.75;10.27;;;16.60;99.90;;;;;;4998571;28;20147;-76
2021/07/06 00:07:24;;;;;;;12.10;10.10;;;16.60;99.90;;;;;;4998421;28;20109;-76
2021/07/06 00:09:51;;;;;;;12.80;9.50;;;16.60;99.90;;;;;;5016016;28;20105;-76
2021/07/06 00:12:17;;;;;;;12.05;10.10;;;16.60;99.90;;;;;;4998438;28;20032;-78
2021/07/06 00:14:43;;;;;;;15.07;10.40;;;16.60;99.90;;;;;;5015948;28;20028;-77
2021/07/06 00:17:09;;;;;;;12.15;10.00;;;16.50;99.90;;;;;;5015821;28;20080;-77
2021/07/06 00:19:35;;;;;;;14.57;10.65;;;16.50;99.90;;;;;;5015773;28;20022;-76
2021/07/06 00:22:01;;;;;;;13.45;9.57;;;16.30;99.90;;;;;;4998247;28;20018;-77
2021/07/06 00:24:26;;;;;;;12.65;10.30;;;16.30;99.90;;;;;;5015729;28;20025;-76
2021/07/06 00:26:52;;;;;;;15.48;10.05;;;16.20;99.90;;;;;;5015811;28;20026;-76
2021/07/06 00:29:18;;;;;;;12.82;9.27;;;16.10;99.90;;;;;;4997948;28;20072;-77
2021/07/06 00:31:44;;;;;;;12.30;10.13;;;16.20;99.90;;;;;;4997888;28;20026;-77
2021/07/06 00:34:09;;;;;;;11.05;9.50;;;16.20;99.90;;;;;;5015407;28;20076;-77
2021/07/06 00:36:35;;;;;;;18.50;11.10;;;16.20;99.90;;;;;;5015553;28;20125;-77
2021/07/06 00:39:00;;;;;;;14.60;10.88;;;16.10;99.90;;;;;;5015375;28;20412;-77
2021/07/06 00:41:29;;;;;;;13.60;10.13;;;16.10;99.90;;;;;;5015422;28;20029;-76
2021/07/06 00:43:55;;;;;;;11.05;9.27;;;16.10;99.90;;;;;;5015287;28;20052;-76
2021/07/06 00:46:20;;;;;;;14.70;11.38;;;16.00;99.90;;;;;;4997605;28;20085;-78
2021/07/06 00:48:46;;;;;;;15.05;11.55;;;16.00;99.90;;;;;;4997688;28;20475;-76
2021/07/06 00:51:12;;;;;;;15.20;10.93;;;16.00;99.90;;;;;;4997549;28;20104;-76
2021/07/06 00:53:39;;;;;;;15.20;11.48;;;15.90;99.90;;;;;;4997505;28;20014;-76
2021/07/06 00:56:05;;;;;;;15.15;11.90;;;15.80;99.90;;;;;;5030294;28;20384;-76
2021/07/06 00:58:31;;;;;;;15.48;11.38;;;15.90;99.90;;;;;;4997496;28;20045;-76
2021/07/06 01:00:57;;;;;;;16.98;11.70;;;15.90;99.90;;;;;;5015138;28;20029;-77
2021/07/06 01:03:23;;;;;;;15.77;12.45;;;15.90;99.90;;;;;;5014862;28;20473;-77
2021/07/06 01:05:49;;;;;;;16.58;11.05;;;15.80;99.90;;;;;;5014928;28;20029;-77
2021/07/06 01:08:15;;;;;;;14.93;12.63;;;15.80;99.90;;;;;;5014823;28;20080;-76
2021/07/06 01:10:42;;;;;;;16.73;11.90;;;15.80;99.90;;;;;;5014712;28;20033;-77
2021/07/06 01:13:08;;;;;;;15.05;11.35;;;15.70;99.90;;;;;;5014808;28;20029;-77
2021/07/06 01:15:35;;;;;;;15.70;11.25;;;15.70;99.90;;;;;;4997027;28;20057;-76
2021/07/06 01:18:18;;;;;;;13.63;9.95;;;15.70;99.90;;;;;;5014855;28;20476;-77
2021/07/06 01:20:47;;;;;;;;;;;15.60;99.90;;;;;;5015175;28;20072;-77
2021/07/06 01:23:16;;;;;;;13.15;11.05;;;15.60;99.90;;;;;;4997232;28;19971;-77
2021/07/06 01:25:43;;;;;;;13.32;9.82;;;15.50;99.90;;;;;;4996879;28;20022;-77
2021/07/06 01:28:09;;;;;;;13.50;9.20;;;15.40;99.90;;;;;;4996922;28;20034;-77
2021/07/06 01:30:36;;;;;;;11.57;10.35;;;15.40;99.90;;;;;;5014423;28;20254;-76
2021/07/06 01:33:03;;;;;;;17.40;12.85;;;15.40;99.90;;;;;;4996888;28;20026;-77
2021/07/06 01:35:29;;;;;;;21.60;13.38;;;15.40;99.90;;;;;;5014329;28;20026;-76
2021/07/06 01:37:57;;;;;;;20.38;13.10;;;15.40;99.90;;;;;;5014376;28;20087;-77
2021/07/06 01:40:24;;;;;;;19.67;12.63;;;15.40;99.90;;;;;;5014201;28;20034;-77
2021/07/06 01:42:51;;;;;;;18.27;12.98;;;15.40;99.90;;;;;;4996796;28;20391;-77
2021/07/06 01:45:22;;;;;;;19.17;10.77;;;15.40;99.90;;;;;;5013985;28;20022;-76
2021/07/06 01:47:53;;;;;;;15.10;11.75;;;15.30;99.90;;;;;;4996526;28;20483;-77
2021/07/06 01:50:24;;;;;;;15.10;12.43;;;15.20;99.90;;;;;;5014021;28;20525;-76
2021/07/06 01:52:52;;;;;;;15.35;11.77;;;15.20;99.90;;;;;;4996724;28;20045;-76
2021/07/06 01:55:21;;;;;;;14.77;12.52;;;15.20;99.90;;;;;;4996091;28;20026;-76
2021/07/06 01:57:51;;;;;;;30.30;14.45;;;15.20;99.90;;;;;;5014128;28;20121;-77
2021/07/06 02:00:19;;;;;;;39.05;16.80;;;15.20;99.90;;;;;;5013672;28;20014;-76
2021/07/06 02:02:45;;;;;;;20.63;13.77;;;15.10;99.90;;;;;;5014085;28;20033;-77
2021/07/06 02:05:14;;;;;;;18.35;11.65;;;15.10;99.90;;;;;;4996169;28;20113;-77
2021/07/06 02:07:40;;;;;;;8.93;7.95;;;15.00;99.90;;;;;;5013902;28;20048;-77
2021/07/06 02:10:07;;;;;;;8.57;7.22;;;15.00;99.90;;;;;;5013809;28;20030;-76
2021/07/06 02:12:34;;;;;;;8.38;7.55;;;14.90;99.90;;;;;;5013764;28;20025;-77
2021/07/06 02:15:00;;;;;;;8.73;6.90;;;14.80;99.90;;;;;;5013403;28;20022;-77
2021/07/06 02:17:28;;;;;;;6.68;6.00;;;14.80;99.90;;;;;;4995746;28;20045;-76
2021/07/06 02:19:54;;;;;;;6.90;6.30;;;14.80;99.90;;;;;;5013217;28;20430;-77
2021/07/06 02:22:20;;;;;;;5.65;5.25;;;14.70;99.90;;;;;;4995416;28;20018;-77
2021/07/06 02:24:46;;;;;;;6.68;6.00;;;14.60;99.90;;;;;;5013548;28;20041;-76
2021/07/06 02:27:12;;;;;;;9.90;7.20;;;14.50;99.90;;;;;;5013503;28;20028;-77
2021/07/06 02:29:38;;;;;;;14.00;9.43;;;14.50;99.90;;;;;;4995807;28;20033;-77
2021/07/06 02:32:04;;;;;;;19.75;12.38;;;14.40;99.90;;;;;;5013403;28;20114;-76
2021/07/06 02:34:30;;;;;;;26.08;14.20;;;14.50;99.90;;;;;;5013351;28;20072;-77
2021/07/06 02:36:56;;;;;;;32.92;16.25;;;14.40;99.90;;;;;;5013452;28;20089;-77
2021/07/06 02:39:22;;;;;;;21.10;12.55;;;14.40;99.90;;;;;;5013194;28;20045;-76
2021/07/06 02:41:48;;;;;;;16.92;11.38;;;14.40;99.90;;;;;;5013197;28;20534;-77
2021/07/06 02:44:14;;;;;;;29.20;15.40;;;14.40;99.90;;;;;;4995508;28;20026;-76
2021/07/06 02:46:39;;;;;;;20.63;12.52;;;14.50;99.90;;;;;;5013320;28;20026;-76
2021/07/06 02:49:05;;;;;;;28.85;15.48;;;14.50;99.90;;;;;;4995580;28;20030;-77
2021/07/06 02:51:31;;;;;;;36.75;19.23;;;14.50;99.90;;;;;;5013066;28;20041;-76
2021/07/06 02:53:56;;;;;;;30.23;14.65;;;14.50;99.90;;;;;;4995697;28;20399;-76
2021/07/06 02:56:22;;;;;;;23.75;12.60;;;14.40;99.90;;;;;;5012956;28;20049;-77
2021/07/06 02:58:48;;;;;;;15.48;10.35;;;14.40;99.90;;;;;;5028251;28;20022;-76
2021/07/06 03:01:13;;;;;;;11.45;8.50;;;14.40;99.90;;;;;;5012964;28;20029;-78
2021/07/06 03:03:39;;;;;;;13.43;8.80;;;14.40;99.90;;;;;;5012866;28;20121;-76
2021/07/06 03:06:04;;;;;;;27.20;14.65;;;14.40;99.90;;;;;;5010359;28;20097;-77
2021/07/06 03:08:30;;;;;;;16.52;10.73;;;14.40;99.90;;;;;;5013331;28;20085;-76
2021/07/06 03:10:57;;;;;;;22.67;11.85;;;14.40;99.90;;;;;;4995410;28;20034;-78
2021/07/06 03:13:23;;;;;;;17.80;11.02;;;14.40;99.90;;;;;;5012790;28;20297;-76
2021/07/06 03:15:48;;;;;;;22.30;13.23;;;14.40;99.90;;;;;;5012961;28;20072;-77
2021/07/06 03:18:14;;;;;;;22.88;12.57;;;14.40;99.90;;;;;;5012783;28;20113;-78
2021/07/06 03:20:40;;;;;;;16.80;11.43;;;14.40;99.90;;;;;;5012857;28;20026;-78
2021/07/06 03:23:06;;;;;;;21.13;13.60;;;14.50;99.90;;;;;;4995252;28;20030;-77
2021/07/06 03:25:33;;;;;;;21.17;14.18;;;14.60;99.90;;;;;;4995028;28;20145;-76
2021/07/06 03:28:00;;;;;;;22.85;14.23;;;14.70;99.90;;;;;;4995328;28;20037;-77
2021/07/06 03:30:30;;;;;;;20.83;13.63;;;14.90;99.90;;;;;;4995042;28;20164;-77
2021/07/06 03:32:58;;;;;;;19.63;14.43;;;15.00;99.90;;;;;;4995301;28;20029;-76
2021/07/06 03:35:25;;;;;;;15.65;11.82;;;15.20;99.90;;;;;;5015444;28;20101;-76
2021/07/06 03:37:50;;;;;;;14.10;10.10;;;15.50;99.90;;;;;;5016686;28;20033;-77
2021/07/06 03:40:16;;;;;;;19.90;11.07;;;15.60;99.90;;;;;;5016444;28;20030;-77
2021/07/06 03:42:42;;;;;;;12.13;8.98;;;15.70;99.90;;;;;;5016578;28;20125;-76
2021/07/06 03:45:11;;;;;;;21.58;12.00;;;15.70;99.90;;;;;;5016462;28;20423;-76
2021/07/06 03:47:37;;;;;;;20.55;10.00;;;16.00;99.20;;;;;;5016515;28;20038;-76
2021/07/06 03:50:05;;;;;;;16.88;9.07;;;16.10;97.50;;;;;;5016243;28;20093;-76
2021/07/06 03:52:31;;;;;;;14.63;8.95;;;16.30;95.00;;;;;;5016523;28;20121;-77
2021/07/06 03:54:57;;;;;;;15.52;9.48;;;16.40;93.90;;;;;;5016280;28;20096;-76
2021/07/06 03:57:28;;;;;;;11.82;8.57;;;16.60;93.60;;;;;;5016195;28;20038;-76
2021/07/06 03:59:59;;;;;;;14.07;8.60;;;16.70;92.60;;;;;;5016390;28;20109;-77
2021/07/06 04:02:25;;;;;;;14.70;9.30;;;16.90;91.40;;;;;;5016133;28;20026;-76
2021/07/06 04:04:51;;;;;;;15.80;8.85;;;17.10;89.70;;;;;;4998646;28;20092;-77
2021/07/06 04:07:17;;;;;;;11.45;8.70;;;17.30;89.30;;;;;;4998498;28;20018;-77
2021/07/06 04:09:43;;;;;;;14.93;11.10;;;17.40;88.70;;;;;;5016016;28;20538;-77
2021/07/06 04:12:09;;;;;;;16.13;10.32;;;17.50;88.10;;;;;;4998389;28;20026;-78
2021/07/06 04:14:35;;;;;;;16.73;11.45;;;17.60;88.30;;;;;;4998230;28;20084;-77
2021/07/06 04:17:01;;;;;;;13.98;9.43;;;17.70;88.60;;;;;;5012235;28;20125;-77
2021/07/06 04:19:27;;;;;;;16.92;10.10;;;18.00;87.70;;;;;;5015459;28;20029;-77
2021/07/06 04:21:53;;;;;;;14.18;10.52;;;18.10;86.60;;;;;;4998024;28;20022;-77
2021/07/06 04:24:19;;;;;;;19.02;11.95;;;18.30;86.50;;;;;;4997831;28;20050;-78
2021/07/06 04:26:44;;;;;;;30.92;14.95;;;18.50;87.50;;;;;;5015840;28;20104;-78
2021/07/06 04:29:11;;;;;;;33.15;16.75;;;18.70;88.50;;;;;;4997144;28;20026;-78
2021/07/06 04:31:36;;;;;;;48.13;24.27;;;18.90;87.80;;;;;;5014799;28;20427;-77
2021/07/06 04:34:03;;;;;;;38.00;20.80;;;19.10;87.90;;;;;;4995937;28;20108;-77
2021/07/06 04:36:28;;;;;;;37.92;19.33;;;19.30;88.30;;;;;;5013359;28;20041;-77
2021/07/06 04:38:54;;;;;;;32.97;17.70;;;19.40;89.90;;;;;;4995670;28;20097;-77
2021/07/06 04:41:20;;;;;;;28.10;16.98;;;19.50;90.60;;;;;;4995756;28;20512;-77
2021/07/06 04:43:46;;;;;;;31.48;17.30;;;19.60;90.00;;;;;;4995449;28;20068;-77
2021/07/06 04:46:12;;;;;;;31.52;17.50;;;19.80;90.00;;;;;;4995147;28;20022;-78
2021/07/06 04:48:38;;;;;;;32.45;21.08;;;19.80;90.70;;;;;;5015116;28;20083;-78
2021/07/06 04:51:08;;;;;;;58.50;40.95;;;19.80;91.90;;;;;;5014999;28;20025;-78
2021/07/06 04:53:35;;;;;;;45.08;28.92;;;19.90;91.50;;;;;;4997613;28;20499;-77
2021/07/06 04:56:01;;;;;;;31.75;21.15;;;20.00;92.10;;;;;;4997505;28;20080;-78
2021/07/06 04:58:28;;;;;;;30.42;21.50;;;20.00;91.60;;;;;;5030322;28;20030;-78
2021/07/06 05:00:54;;;;;;;35.95;25.63;;;20.00;91.80;;;;;;5015158;28;20101;-78
2021/07/06 05:03:20;;;;;;;31.65;19.58;;;20.00;94.30;;;;;;4997134;28;20497;-78
2021/07/06 05:05:46;;;;;;;28.17;20.08;;;20.00;93.00;;;;;;4997519;28;20021;-78
2021/07/06 05:08:12;;;;;;;35.15;20.13;;;20.10;92.90;;;;;;5015039;28;20415;-78
2021/07/06 05:10:38;;;;;;;26.67;19.25;;;20.10;93.40;;;;;;4997309;28;20029;-79
2021/07/06 05:13:04;;;;;;;24.60;17.38;;;20.20;93.00;;;;;;5014421;28;20064;-78
2021/07/06 05:15:30;;;;;;;22.80;16.92;;;20.20;92.00;;;;;;5014475;28;20034;-78
2021/07/06 05:17:56;;;;;;;21.35;14.43;;;20.30;92.10;;;;;;5014804;28;20036;-78
2021/07/06 05:20:22;;;;;;;20.77;15.20;;;20.40;91.70;;;;;;5014575;28;20061;-78
2021/07/06 05:22:48;;;;;;;20.50;15.45;;;20.40;92.30;;;;;;5014681;28;20562;-78
2021/07/06 05:25:15;;;;;;;21.33;14.50;;;20.40;91.90;;;;;;4996891;28;20069;-78
2021/07/06 05:27:41;;;;;;;20.17;14.88;;;20.60;90.90;;;;;;4996994;28;20545;-78
2021/07/06 05:30:08;;;;;;;18.85;13.88;;;20.70;91.40;;;;;;5014411;28;20025;-78
2021/07/06 05:32:36;;;;;;;18.05;13.65;;;20.80;89.50;;;;;;5014541;28;20018;-78
2021/07/06 05:35:02;;;;;;;19.17;14.05;;;20.90;89.30;;;;;;5014427;28;20065;-78
2021/07/06 05:37:28;;;;;;;19.90;15.27;;;21.10;88.50;;;;;;5014298;28;20038;-78
2021/07/06 05:39:54;;;;;;;22.08;14.30;;;21.20;89.10;;;;;;4996647;28;20022;-78
2021/07/06 05:42:20;;;;;;;19.95;13.93;;;21.20;88.20;;;;;;5014213;28;20434;-78
2021/07/06 05:44:46;;;;;;;16.65;13.90;;;21.40;87.20;;;;;;4996615;28;20415;-78
2021/07/06 05:47:12;;;;;;;21.15;13.30;;;21.50;86.70;;;;;;5013295;28;20029;-78
2021/07/06 05:49:38;;;;;;;23.85;13.63;;;21.60;85.30;;;;;;5013679;28;20539;-79
2021/07/06 05:52:04;;;;;;;18.35;12.35;;;21.60;85.30;;;;;;5029316;28;20065;-78
2021/07/06 05:54:30;;;;;;;17.98;11.50;;;21.70;83.90;;;;;;5029215;28;20117;-78
2021/07/06 05:56:55;;;;;;;13.65;11.60;;;21.80;82.50;;;;;;5028481;28;20129;-78
2021/07/06 05:59:21;;;;;;;15.57;11.10;;;21.90;78.90;;;;;;5014010;28;20024;-77
2021/07/06 06:01:47;;;;;;;17.50;10.93;;;22.00;78.50;;;;;;4996344;28;20022;-78
2021/07/06 06:04:13;;;;;;;14.27;10.70;;;22.10;78.40;;;;;;5013797;28;20447;-77
2021/07/06 06:06:38;;;;;;;15.02;11.60;;;22.30;79.60;;;;;;5029075;28;20087;-78
2021/07/06 06:09:04;;;;;;;17.20;11.13;;;22.40;78.30;;;;;;4996150;28;20028;-78
2021/07/06 06:11:30;;;;;;;13.40;10.38;;;22.50;78.80;;;;;;4996166;28;20026;-78
2021/07/06 06:13:56;;;;;;;11.40;9.93;;;22.50;75.90;;;;;;4994364;28;20029;-77
2021/07/06 06:16:21;;;;;;;13.07;10.02;;;22.60;76.00;;;;;;5012879;28;20526;-78
2021/07/06 06:18:54;;;;;;;16.73;10.35;;;22.80;75.40;;;;;;4995376;28;20025;-77
2021/07/06 06:21:25;;;;;;;11.52;10.02;;;22.90;75.00;;;;;;4991170;28;20025;-77
2021/07/06 06:23:52;;;;;;;12.10;10.38;;;23.10;73.40;;;;;;4993694;28;20042;-78
2021/07/06 06:26:18;;;;;;;11.70;9.50;;;23.30;74.10;;;;;;4993570;28;20037;-78
2021/07/06 06:28:43;;;;;;;9.88;8.80;;;23.30;73.30;;;;;;5011852;28;20034;-78
2021/07/06 06:31:10;;;;;;;10.48;8.75;;;23.40;70.90;;;;;;4993460;28;20088;-78
2021/07/06 06:33:35;;;;;;;10.88;9.40;;;23.60;70.70;;;;;;5011609;28;20261;-78
2021/07/06 06:36:01;;;;;;;9.57;7.85;;;23.80;67.80;;;;;;4993720;28;20037;-77
2021/07/06 06:38:27;;;;;;;8.45;7.28;;;23.90;68.40;;;;;;5011017;28;20394;-78
2021/07/06 06:40:53;;;;;;;10.45;7.82;;;24.00;67.80;;;;;;4994345;28;20018;-78
2021/07/06 06:43:18;;;;;;;8.38;6.90;;;24.10;65.80;;;;;;4993212;28;20125;-77
2021/07/06 06:45:46;;;;;;;9.23;6.88;;;24.30;65.60;;;;;;4993838;28;20033;-78
2021/07/06 06:48:12;;;;;;;7.80;6.47;;;24.40;64.50;;;;;;4993117;28;20026;-78
2021/07/06 06:50:38;;;;;;;7.40;6.70;;;24.50;63.80;;;;;;4994174;28;20427;-79
2021/07/06 06:53:03;;;;;;;9.75;7.22;;;24.60;64.30;;;;;;5010764;28;20036;-78
2021/07/06 06:55:29;;;;;;;5.75;5.22;;;24.60;61.60;;;;;;5011151;28;20091;-78
2021/07/06 06:57:55;;;;;;;9.27;6.00;;;24.70;61.10;;;;;;4993876;28;20076;-78
2021/07/06 07:00:21;;;;;;;7.22;5.20;;;24.70;61.00;;;;;;4984972;28;20025;-78
2021/07/06 07:02:50;;;;;;;5.18;4.68;;;24.80;60.70;;;;;;5012919;28;20026;-78
2021/07/06 07:05:16;;;;;;;4.97;4.47;;;25.00;60.20;;;;;;5007588;28;20042;-77
2021/07/06 07:07:42;;;;;;;5.50;4.32;;;25.00;58.30;;;;;;5013091;28;20029;-77
2021/07/06 07:10:08;;;;;;;5.05;4.65;;;25.10;58.40;;;;;;5036707;28;20423;-78
2021/07/06 07:12:35;;;;;;;5.82;5.22;;;25.20;59.40;;;;;;5036986;28;20112;-78
2021/07/06 07:15:03;;;;;;;6.88;4.68;;;25.30;59.20;;;;;;5025710;28;20061;-78
2021/07/06 07:17:28;;;;;;;9.80;5.28;;;25.50;59.30;;;;;;4997181;28;20402;-78
2021/07/06 07:19:54;;;;;;;7.10;4.95;;;25.50;56.70;;;;;;5016262;28;20041;-78
2021/07/06 07:22:20;;;;;;;7.18;5.10;;;25.60;55.50;;;;;;5014941;28;20483;-78
2021/07/06 07:24:46;;;;;;;6.47;4.72;;;25.70;56.40;;;;;;5016223;28;20038;-78
2021/07/06 07:27:12;;;;;;;7.07;4.82;;;25.80;55.80;;;;;;4997622;28;20096;-78
2021/07/06 07:29:38;;;;;;;9.02;5.15;;;25.80;56.00;;;;;;5017810;28;20081;-78
2021/07/06 07:32:05;;;;;;;7.07;5.53;;;25.80;56.20;;;;;;5017362;28;20502;-78
2021/07/06 07:34:31;;;;;;;6.75;4.80;;;25.80;55.50;;;;;;5017373;28;20060;-77
2021/07/06 07:36:57;;;;;;;11.13;5.43;;;25.90;56.40;;;;;;5017325;28;20037;-77
2021/07/06 07:39:23;;;;;;;8.57;5.93;;;26.10;56.20;;;;;;5016555;28;20103;-77
2021/07/06 07:41:49;;;;;;;7.20;6.10;;;26.20;55.50;;;;;;5017605;28;20038;-77
2021/07/06 07:44:14;;;;;;;7.55;5.05;;;26.40;55.80;;;;;;5015915;28;20041;-78
2021/07/06 07:46:40;;;;;;;4.70;4.28;;;26.20;55.00;;;;;;4998655;28;20471;-78
2021/07/06 07:49:06;;;;;;;5.30;4.80;;;25.90;54.30;;;;;;4998730;28;20375;-77
2021/07/06 07:51:31;;;;;;;7.05;5.25;;;26.10;55.60;;;;;;5015638;28;20369;-78
2021/07/06 07:53:57;;;;;;;9.32;5.07;;;26.30;55.40;;;;;;4999468;28;20459;-77
2021/07/06 07:56:23;;;;;;;8.48;5.18;;;26.40;56.80;;;;;;5016485;28;20068;-78
2021/07/06 07:58:48;;;;;;;6.72;5.65;;;26.60;55.00;;;;;;5012543;28;20042;-78
2021/07/06 08:01:14;;;;;;;5.47;4.90;;;26.60;54.00;;;;;;5011825;28;20049;-77
2021/07/06 08:03:40;;;;;;;7.03;5.55;;;26.30;54.60;;;;;;4998754;28;20045;-78
2021/07/06 08:06:05;;;;;;;12.68;6.13;;;26.00;55.20;;;;;;5015855;28;20028;-77
2021/07/06 08:08:31;;;;;;;6.85;5.40;;;25.90;55.20;;;;;;5016139;28;20029;-77
2021/07/06 08:10:59;;;;;;;7.20;5.82;;;25.90;55.90;;;;;;4997983;28;20022;-77
2021/07/06 08:13:26;;;;;;;7.93;5.45;;;25.60;55.70;;;;;;5015405;28;20014;-77
2021/07/06 08:15:53;;;;;;;7.50;5.43;;;25.80;55.10;;;;;;5016524;28;20041;-77
2021/07/06 08:18:19;;;;;;;7.35;5.20;;;25.90;54.80;;;;;;5015838;28;20057;-77
2021/07/06 08:20:46;;;;;;;5.95;5.28;;;25.90;54.10;;;;;;5012431;28;20038;-77
2021/07/06 08:23:12;;;;;;;6.80;4.95;;;26.10;54.50;;;;;;4994541;28;20018;-77
2021/07/06 08:25:38;;;;;;;7.10;5.28;;;26.40;54.90;;;;;;5013575;28;20041;-77
2021/07/06 08:28:04;;;;;;;7.38;5.45;;;26.70;54.40;;;;;;5013195;28;20018;-77
2021/07/06 08:30:30;;;;;;;8.85;5.47;;;26.80;52.90;;;;;;5012478;28;20061;-78
2021/07/06 08:32:55;;;;;;;7.18;5.63;;;26.90;53.10;;;;;;5013070;28;20364;-77
2021/07/06 08:35:21;;;;;;;6.70;5.85;;;26.90;53.10;;;;;;5012420;28;20030;-77
2021/07/06 08:37:47;;;;;;;9.20;5.78;;;27.00;52.40;;;;;;5012688;28;20033;-77
2021/07/06 08:40:13;;;;;;;9.65;5.63;;;27.10;52.00;;;;;;5012647;28;20120;-78
2021/07/06 08:42:40;;;;;;;9.93;5.00;;;26.80;51.70;;;;;;5011949;28;20049;-78
2021/07/06 08:45:08;;;;;;;8.15;5.60;;;26.50;52.70;;;;;;4994586;28;20044;-77
2021/07/06 08:47:35;;;;;;;8.75;5.93;;;26.20;52.60;;;;;;5013026;28;20104;-77
2021/07/06 08:50:04;;;;;;;8.80;5.05;;;26.30;53.10;;;;;;5013303;28;20488;-77
2021/07/06 08:52:30;;;;;;;7.05;4.80;;;26.10;52.70;;;;;;4994020;28;20044;-77
2021/07/06 08:54:56;;;;;;;9.82;6.18;;;26.20;52.50;;;;;;5010911;28;20053;-77
2021/07/06 08:57:22;;;;;;;7.63;5.32;;;26.40;51.70;;;;;;4993285;28;20092;-77
2021/07/06 08:59:49;;;;;;;8.50;5.25;;;26.70;52.80;;;;;;5011750;28;20076;-77
2021/07/06 09:02:20;;;;;;;8.15;5.38;;;26.90;51.90;;;;;;4989308;28;20045;-78
2021/07/06 09:04:48;;;;;;;7.20;5.13;;;26.90;50.40;;;;;;5012338;28;20033;-78
2021/07/06 09:07:14;;;;;;;7.07;5.93;;;27.00;51.00;;;;;;5010505;28;20032;-78
2021/07/06 09:09:40;;;;;;;6.43;5.28;;;27.00;52.40;;;;;;5013124;28;20041;-78
2021/07/06 09:12:07;;;;;;;7.55;5.63;;;27.20;51.90;;;;;;4994956;28;20396;-77
2021/07/06 09:14:36;;;;;;;7.53;5.20;;;26.90;51.10;;;;;;5012873;28;20498;-77
2021/07/06 09:17:15;;;;;;;11.20;8.65;;;27.10;53.60;;;;;;4995476;28;20041;-78
2021/07/06 09:19:46;;;;;;;8.38;6.50;;;26.70;52.00;;;;;;4995443;28;20037;-78
2021/07/06 09:22:14;;;;;;;8.50;6.77;;;26.40;52.80;;;;;;4993390;28;20018;-77
2021/07/06 09:24:43;;;;;;;7.75;6.30;;;26.20;52.40;;;;;;5012515;28;20022;-77
2021/07/06 09:27:31;;;;;;;7.80;5.97;;;26.10;53.60;;;;;;5011889;28;20025;-78
2021/07/06 09:30:19;;;;;;;7.28;6.60;;;26.20;53.30;;;;;;5012576;28;20122;-77
2021/07/06 09:32:53;;;;;;;5.72;5.22;;;26.20;53.50;;;;;;5011707;28;20033;-77
2021/07/06 09:35:23;;;;;;;6.72;5.32;;;26.50;54.90;;;;;;5011538;28;20056;-77
2021/07/06 09:38:00;;;;;;;5.65;4.90;;;26.90;52.40;;;;;;5012863;28;20030;-77
2021/07/06 09:40:37;;;;;;;6.97;5.60;;;27.40;51.70;;;;;;4994304;28;20038;-77
2021/07/06 09:43:23;;;;;;;6.30;5.45;;;27.30;50.50;;;;;;5011922;28;20061;-77
2021/07/06 09:46:05;;;;;;;8.23;5.78;;;27.50;49.80;;;;;;4994179;28;20489;-78
2021/07/06 09:48:34;;;;;;;6.18;5.38;;;28.00;50.50;;;;;;4991503;28;20365;-77
2021/07/06 09:51:20;;;;;;;7.32;5.65;;;28.10;48.80;;;;;;4994189;28;20038;-78
2021/07/06 09:53:54;;;;;;;7.35;5.15;;;28.30;48.90;;;;;;4994466;28;20387;-78
2021/07/06 09:56:23;;;;;;;5.47;4.97;;;28.50;48.90;;;;;;4993093;28;20039;-78
2021/07/06 09:59:03;;;;;;;4.82;4.30;;;28.30;48.00;;;;;;4977067;28;20066;-78
2021/07/06 10:01:30;;;;;;;4.55;4.15;;;28.20;47.10;;;;;;4994194;28;20137;-78
2021/07/06 10:03:57;;;;;;;4.63;4.22;;;28.00;47.70;;;;;;4993574;28;20038;-78
2021/07/06 10:06:25;;;;;;;5.70;4.95;;;28.20;48.60;;;;;;4994099;28;20109;-78
2021/07/06 10:08:52;;;;;;;5.85;4.97;;;27.90;48.10;;;;;;4993335;28;20023;-78
2021/07/06 10:11:19;;;;;;;5.80;5.20;;;27.80;48.80;;;;;;4993154;28;20019;-78
2021/07/06 10:13:45;;;;;;;5.75;4.63;;;28.00;50.00;;;;;;4994199;28;20035;-78
2021/07/06 10:16:13;;;;;;;5.97;5.18;;;27.80;48.60;;;;;;4992826;28;20038;-78
2021/07/06 10:18:38;;;;;;;4.93;4.43;;;27.50;48.30;;;;;;4976675;28;20025;-78
2021/07/06 10:21:05;;;;;;;4.55;4.15;;;27.40;48.20;;;;;;4992880;28;20022;-78
2021/07/06 10:23:35;;;;;;;4.68;4.18;;;27.70;48.40;;;;;;4976558;28;20022;-78
2021/07/06 10:26:03;;;;;;;6.88;5.03;;;28.00;47.90;;;;;;4992879;28;20021;-78
2021/07/06 10:28:30;;;;;;;4.13;3.55;;;28.40;47.20;;;;;;4974421;28;20022;-78
2021/07/06 10:30:56;;;;;;;4.63;4.10;;;28.70;46.90;;;;;;4991890;28;20030;-78
2021/07/06 10:33:31;;;;;;;4.88;4.22;;;28.90;46.00;;;;;;4991784;28;20026;-78
2021/07/06 10:36:02;;;;;;;5.05;4.28;;;29.10;46.90;;;;;;4974528;28;20034;-78
2021/07/06 10:38:31;;;;;;;4.60;4.20;;;29.10;44.90;;;;;;4991988;28;20022;-78
2021/07/06 10:41:02;;;;;;;4.72;4.18;;;29.00;44.60;;;;;;4992907;28;20018;-78
2021/07/06 10:43:37;;;;;;;4.10;3.80;;;29.10;45.90;;;;;;4976006;28;20029;-78
2021/07/06 10:46:20;;;;;;;3.47;3.17;;;29.20;44.20;;;;;;4991765;28;20026;-78
2021/07/06 10:49:14;;;;;;;4.43;4.10;;;29.20;44.20;;;;;;4999471;28;20112;-79
2021/07/06 10:51:40;;;;;;;4.07;3.67;;;29.00;43.10;;;;;;5010834;28;20058;-78
2021/07/06 10:54:20;;;;;;;6.13;3.75;;;28.90;44.10;;;;;;5011137;28;20487;-78
2021/07/06 10:56:48;;;;;;;4.55;3.55;;;28.80;43.40;;;;;;4993874;28;20439;-77
2021/07/06 10:59:36;;;;;;;4.55;4.18;;;29.00;45.20;;;;;;4993583;28;20033;-77
2021/07/06 11:02:06;;;;;;;5.85;4.00;;;29.00;44.50;;;;;;5011072;28;20045;-78
2021/07/06 11:04:39;;;;;;;5.60;4.25;;;28.80;44.60;;;;;;5010657;28;20064;-78
2021/07/06 11:07:06;;;;;;;5.28;4.22;;;28.60;44.60;;;;;;4993954;28;20065;-78
2021/07/06 11:09:35;;;;;;;4.82;4.43;;;28.40;46.50;;;;;;5010782;28;20018;-78
2021/07/06 11:12:23;;;;;;;5.07;4.57;;;28.30;46.20;;;;;;5011490;28;20161;-78
2021/07/06 11:14:57;;;;;;;6.10;4.13;;;28.30;46.20;;;;;;5010433;28;20026;-78
2021/07/06 11:17:33;;;;;;;5.53;4.50;;;28.30;44.60;;;;;;4992976;28;20060;-78
2021/07/06 11:20:02;;;;;;;5.60;4.55;;;28.20;44.70;;;;;;5011465;28;20110;-77
2021/07/06 11:22:47;;;;;;;4.03;3.67;;;28.30;44.40;;;;;;5010667;28;20026;-78
2021/07/06 11:25:20;;;;;;;5.50;4.47;;;28.20;43.60;;;;;;4993304;28;20041;-78
2021/07/06 11:28:00;;;;;;;6.10;4.22;;;28.30;43.90;;;;;;4993725;28;20495;-78
2021/07/06 11:30:39;;;;;;;3.55;3.25;;;28.10;44.20;;;;;;5009566;28;20104;-77
2021/07/06 11:33:17;;;;;;;4.38;3.55;;;28.00;43.60;;;;;;5011435;28;20085;-77
2021/07/06 11:35:53;;;;;;;4.25;3.90;;;28.00;43.90;;;;;;4993426;28;20049;-78
2021/07/06 11:38:23;;;;;;;6.93;4.63;;;27.90;44.30;;;;;;4992878;28;20049;-78
2021/07/06 11:40:53;;;;;;;4.65;4.05;;;27.80;45.00;;;;;;5011101;28;20045;-77
2021/07/06 11:43:21;;;;;;;4.22;3.80;;;27.90;46.10;;;;;;5010514;28;20033;-77
2021/07/06 11:45:49;;;;;;;4.47;3.40;;;28.10;46.90;;;;;;4987934;28;20509;-78
2021/07/06 11:48:17;;;;;;;3.55;3.15;;;28.00;47.10;;;;;;4993430;28;20472;-78
2021/07/06 11:50:44;;;;;;;4.05;3.75;;;28.00;45.80;;;;;;4993086;28;20120;-78
2021/07/06 11:53:11;;;;;;;3.70;3.40;;;28.20;45.00;;;;;;5011543;28;20076;-78
2021/07/06 11:55:38;;;;;;;3.97;3.58;;;28.30;44.10;;;;;;5011886;28;20483;-78
2021/07/06 11:58:10;;;;;;;3.90;3.55;;;28.50;44.10;;;;;;5014078;28;20018;-78
2021/07/06 12:00:38;;;;;;;3.63;3.33;;;28.60;43.70;;;;;;5012849;28;20025;-78
2021/07/06 12:03:21;;;;;;;4.20;3.35;;;28.70;43.70;;;;;;4996868;28;20480;-78
2021/07/06 12:06:07;;;;;;;3.88;3.53;;;28.80;42.60;;;;;;4996714;28;20030;-78
2021/07/06 12:08:37;;;;;;;4.07;3.20;;;28.80;42.40;;;;;;5013610;28;20036;-78
2021/07/06 12:11:09;;;;;;;3.85;3.53;;;28.70;42.20;;;;;;5005005;28;20052;-78
2021/07/06 12:13:36;;;;;;;3.88;3.45;;;28.70;42.70;;;;;;5014847;28;20041;-78
2021/07/06 12:16:06;;;;;;;4.40;3.38;;;28.80;42.40;;;;;;5014634;28;20057;-78
2021/07/06 12:18:34;;;;;;;3.53;3.22;;;29.00;42.40;;;;;;5016058;28;20133;-78
2021/07/06 12:21:06;;;;;;;3.35;3.05;;;29.30;42.10;;;;;;5015953;28;20037;-78
2021/07/06 12:23:31;;;;;;;4.30;3.40;;;29.50;40.70;;;;;;5011939;28;20088;-79
2021/07/06 12:25:58;;;;;;;3.40;3.20;;;29.50;40.80;;;;;;4994798;28;20043;-78
2021/07/06 12:28:25;;;;;;;5.05;3.45;;;29.70;41.90;;;;;;4992862;28;20018;-79
2021/07/06 12:31:25;;;;;;;8.55;3.85;;;29.90;41.30;;;;;;4994243;28;20084;-79
2021/07/06 12:33:58;;;;;;;3.30;3.00;;;30.10;40.80;;;;;;4988299;28;20069;-79
2021/07/06 12:36:34;;;;;;;4.10;3.20;;;30.10;39.40;;;;;;4995499;28;20498;-79
2021/07/06 12:39:15;;;;;;;4.07;3.15;;;29.70;38.90;;;;;;5013672;28;20022;-79
2021/07/06 12:41:52;;;;;;;3.20;2.92;;;29.50;39.20;;;;;;5013562;28;20022;-79
2021/07/06 12:44:26;;;;;;;6.68;3.17;;;29.50;39.20;;;;;;4994380;28;20399;-78